createdAt,value
2023-08-29T00:00:20.338Z,1.97
2023-08-29T00:05:29.213Z,1.87
2023-08-29T00:10:34.699Z,1.63
2023-08-29T00:15:40.093Z,2.47
2023-08-29T00:20:45.475Z,2.13
2023-08-29T00:25:53.153Z,2.47
2023-08-29T00:30:58.616Z,2.07
2023-08-29T00:36:04.566Z,2.40
2023-08-29T00:41:11.662Z,2.27
2023-08-29T00:46:17.427Z,2.60
2023-08-29T00:51:22.959Z,3.90
2023-08-29T00:56:28.424Z,3.10
2023-08-29T01:01:35.301Z,3.20
2023-08-29T01:06:41.472Z,2.87
2023-08-29T01:11:55.933Z,3.07
2023-08-29T01:17:39.087Z,2.90
2023-08-29T01:23:14.657Z,3.27
2023-08-29T01:28:15.449Z,3.17
2023-08-29T01:33:22.115Z,2.90
2023-08-29T01:38:28.372Z,2.40
2023-08-29T01:43:33.781Z,3.47
2023-08-29T01:48:41.174Z,2.03
2023-08-29T01:53:46.716Z,2.40
2023-08-29T01:58:55.118Z,2.70
2023-08-29T02:04:00.606Z,3.07
2023-08-29T02:09:06.197Z,2.70
2023-08-29T02:14:12.949Z,2.20
2023-08-29T02:19:18.224Z,2.27
2023-08-29T02:24:23.635Z,2.13
2023-08-29T02:29:28.943Z,2.03
2023-08-29T02:34:34.382Z,1.80
2023-08-29T02:39:39.732Z,1.33
2023-08-29T02:44:45.170Z,1.33
2023-08-29T02:49:50.532Z,1.13
2023-08-29T02:54:55.971Z,1.30
2023-08-29T03:00:01.293Z,1.70
2023-08-29T03:05:06.830Z,1.47
2023-08-29T03:10:12.561Z,1.47
2023-08-29T03:15:19.496Z,1.40
2023-08-29T03:20:25.082Z,1.20
2023-08-29T03:25:30.408Z,1.37
2023-08-29T03:30:35.842Z,1.17
2023-08-29T03:35:41.385Z,1.07
2023-08-29T03:40:47.279Z,1.10
2023-08-29T03:46:00.254Z,1.43
2023-08-29T03:51:08.930Z,1.00
2023-08-29T03:56:14.309Z,1.10
2023-08-29T04:01:22.829Z,1.10
2023-08-29T04:06:31.470Z,3.90
2023-08-29T04:11:37.018Z,1.87
2023-08-29T04:16:42.819Z,1.60
2023-08-29T04:21:48.349Z,1.30
2023-08-29T04:26:54.502Z,1.30
2023-08-29T04:32:00.887Z,1.00
2023-08-29T04:37:06.474Z,1.13
2023-08-29T04:42:12.353Z,1.20
2023-08-29T04:53:12.004Z,1.73
2023-08-29T05:32:31.978Z,2.80
2023-08-29T05:37:48.740Z,2.23
2023-08-29T06:10:56.129Z,1.93
2023-08-29T06:22:28.360Z,1.80
2023-08-29T06:28:08.777Z,2.50
2023-08-29T06:38:41.566Z,1.80
2023-08-29T06:44:07.638Z,2.03
2023-08-29T06:49:31.216Z,3.00
2023-08-29T06:54:58.314Z,1.70
2023-08-29T07:00:28.913Z,1.97
2023-08-29T07:05:53.133Z,1.90
2023-08-29T07:11:10.545Z,2.67
2023-08-29T07:16:36.215Z,2.10
2023-08-29T07:21:49.767Z,2.10
2023-08-29T07:27:04.652Z,2.17
2023-08-29T07:32:22.916Z,1.80
2023-08-29T07:37:50.396Z,2.67
2023-08-29T07:42:59.590Z,2.10
2023-08-29T07:48:21.449Z,2.17
2023-08-29T07:53:53.890Z,2.40
2023-08-29T07:59:11.521Z,2.10
2023-08-29T08:04:35.918Z,2.23
2023-08-29T08:10:04.122Z,2.70
2023-08-29T08:15:19.539Z,2.57
2023-08-29T08:26:02.881Z,2.87
2023-08-29T08:36:45.454Z,3.00
2023-08-29T08:42:07.638Z,2.93
2023-08-29T08:47:14.930Z,2.60
2023-08-29T08:52:31.259Z,2.50
2023-08-29T08:58:07.080Z,2.60
2023-08-29T09:03:35.056Z,2.43
2023-08-29T09:09:24.734Z,3.23
2023-08-29T09:27:03.946Z,2.63
2023-08-29T09:32:38.905Z,2.60
2023-08-29T09:38:19.487Z,3.50
2023-08-29T09:43:50.848Z,2.97
2023-08-29T09:49:03.414Z,3.03
2023-08-29T09:54:27.420Z,3.13
2023-08-29T10:00:02.390Z,2.93
2023-08-29T10:05:14.896Z,2.87
2023-08-29T10:10:23.272Z,3.03
2023-08-29T10:15:29.180Z,2.50
2023-08-29T10:20:35.104Z,2.97
2023-08-29T10:25:49.134Z,3.17
2023-08-29T10:31:08.187Z,3.43
2023-08-29T10:36:28.682Z,2.60
2023-08-29T10:41:58.682Z,3.47
2023-08-29T10:47:22.050Z,3.03
2023-08-29T10:52:44.364Z,4.47
2023-08-29T10:57:51.930Z,3.43
2023-08-29T11:03:05.489Z,3.13
2023-08-29T11:08:40.412Z,4.30
2023-08-29T11:14:17.331Z,3.70
2023-08-29T11:19:28.732Z,3.60
2023-08-29T11:24:37.541Z,5.37
2023-08-29T11:30:11.240Z,4.70
2023-08-29T11:35:05.651Z,4.00
2023-08-29T11:40:30.142Z,4.20
2023-08-29T11:45:57.630Z,3.27
2023-08-29T11:51:32.556Z,3.83
2023-08-29T11:56:55.749Z,3.67
2023-08-29T12:02:08.995Z,4.53
2023-08-29T12:07:46.251Z,3.10
2023-08-29T12:13:05.743Z,3.57
2023-08-29T12:18:12.945Z,3.83
2023-08-29T12:23:30.456Z,3.83
2023-08-29T12:34:17.843Z,3.67
2023-08-29T12:39:23.097Z,3.43
2023-08-29T12:44:28.476Z,3.43
2023-08-29T12:49:34.049Z,4.43
2023-08-29T12:54:41.350Z,4.10
2023-08-29T12:59:46.757Z,4.30
2023-08-29T13:04:52.244Z,4.20
2023-08-29T13:15:30.860Z,4.33
2023-08-29T13:20:39.222Z,5.40
2023-08-29T13:25:50.020Z,5.37
2023-08-29T13:31:05.144Z,4.77
2023-08-29T13:36:25.383Z,5.47
2023-08-29T13:47:40.416Z,5.77
2023-08-29T13:53:03.440Z,5.87
2023-08-29T13:58:25.662Z,5.70
2023-08-29T14:09:06.199Z,6.20
2023-08-29T14:14:22.248Z,6.30
2023-08-29T14:19:52.750Z,6.63
2023-08-29T14:25:03.778Z,6.47
2023-08-29T14:30:24.030Z,7.20
2023-08-29T14:35:37.400Z,7.57
2023-08-29T14:41:30.714Z,7.07
2023-08-29T14:46:55.574Z,5.43
2023-08-29T14:52:09.197Z,7.53
2023-08-29T14:57:27.084Z,8.70
2023-08-29T15:03:00.120Z,6.83
2023-08-29T15:08:19.921Z,8.10
2023-08-29T15:13:51.806Z,7.87
2023-08-29T15:19:07.625Z,7.47
2023-08-29T15:24:13.167Z,7.50
2023-08-29T15:29:26.053Z,7.33
2023-08-29T15:34:35.986Z,7.70
2023-08-29T15:39:48.282Z,7.83
2023-08-29T15:45:22.168Z,8.10
2023-08-29T15:56:26.693Z,8.67
2023-08-29T16:07:58.475Z,7.90
2023-08-29T16:18:54.873Z,7.40
2023-08-29T16:24:08.492Z,7.60
2023-08-29T16:29:17.379Z,8.23
2023-08-29T16:34:23.047Z,8.03
2023-08-29T16:39:31.168Z,6.83
2023-08-29T16:44:40.842Z,7.63
2023-08-29T16:49:50.920Z,7.57
2023-08-29T16:55:35.991Z,8.23
2023-08-29T17:06:17.546Z,6.20
2023-08-29T17:11:36.707Z,8.47
2023-08-29T17:16:51.634Z,5.60
2023-08-29T17:22:15.037Z,8.00
2023-08-29T17:27:38.837Z,8.03
2023-08-29T17:33:17.041Z,9.50
2023-08-29T17:38:25.625Z,7.90
2023-08-29T17:43:42.997Z,7.60
2023-08-29T17:48:55.854Z,7.40
2023-08-29T17:54:04.796Z,7.73
2023-08-29T18:04:51.302Z,7.50
2023-08-29T18:10:30.816Z,9.03
2023-08-29T18:21:33.247Z,10.10
2023-08-29T18:26:53.269Z,9.47
2023-08-29T18:32:26.793Z,9.93
2023-08-29T18:37:44.078Z,11.43
2023-08-29T18:48:45.313Z,10.43
2023-08-29T18:53:54.182Z,11.83
2023-08-29T18:59:04.120Z,12.80
2023-08-29T19:04:10.020Z,10.73
2023-08-29T19:09:15.390Z,10.93
2023-08-29T19:14:20.791Z,10.30
2023-08-29T19:19:26.612Z,10.60
2023-08-29T19:24:32.041Z,10.10
2023-08-29T19:29:37.384Z,9.90
2023-08-29T19:34:42.800Z,10.47
2023-08-29T19:39:48.218Z,9.03
2023-08-29T19:44:53.664Z,9.90
2023-08-29T19:49:59.063Z,9.63
2023-08-29T19:55:04.602Z,9.47
2023-08-29T20:00:13.218Z,9.47
2023-08-29T20:05:18.780Z,9.47
2023-08-29T20:10:24.285Z,9.90
2023-08-29T20:15:30.258Z,9.67
2023-08-29T20:20:41.693Z,9.60
2023-08-29T20:25:53.217Z,10.53
2023-08-29T20:30:55.551Z,9.90
2023-08-29T20:36:02.469Z,9.73
2023-08-29T20:41:07.926Z,9.03
2023-08-29T20:46:14.991Z,9.60
2023-08-29T20:51:23.586Z,8.97
2023-08-29T20:56:31.454Z,10.80
2023-08-29T21:01:39.807Z,10.73
2023-08-29T21:06:47.386Z,10.20
2023-08-29T21:12:01.806Z,9.97
2023-08-29T21:17:11.391Z,9.43
2023-08-29T21:22:22.482Z,11.80
2023-08-29T21:27:30.115Z,10.33
2023-08-29T21:32:38.156Z,10.80
2023-08-29T21:37:54.397Z,9.97
2023-08-29T21:43:05.639Z,10.33
2023-08-29T21:48:15.324Z,10.33
2023-08-29T21:53:34.930Z,11.37
2023-08-29T21:58:41.876Z,12.13
2023-08-29T22:03:50.632Z,11.10
2023-08-29T22:08:56.295Z,10.70
2023-08-29T22:14:01.798Z,10.37
2023-08-29T22:19:08.940Z,10.07
2023-08-29T22:24:15.025Z,11.53
2023-08-29T22:29:31.220Z,10.40
2023-08-29T22:34:38.874Z,11.93
2023-08-29T22:39:44.490Z,10.37
2023-08-29T22:44:50.398Z,11.73
2023-08-29T22:49:58.959Z,11.23
2023-08-29T22:55:07.073Z,11.27
2023-08-29T23:00:16.705Z,10.57
2023-08-29T23:05:26.117Z,11.57
2023-08-29T23:10:52.877Z,10.60
2023-08-29T23:16:09.707Z,10.20
2023-08-29T23:21:21.457Z,9.90
2023-08-29T23:26:31.735Z,9.47
2023-08-29T23:31:41.418Z,9.40
2023-08-29T23:36:49.007Z,9.80
2023-08-29T23:42:17.958Z,9.43
2023-08-29T23:47:30.666Z,9.00
2023-08-29T23:52:37.790Z,8.40
2023-08-29T23:57:45.865Z,8.87
